sensor_id;sensor_type;location;lat;lon;timestamp;P1;durP1;ratioP1;P2;durP2;ratioP2
25129;SDS011;13308;50.860;13.664;2024-01-06T07:16:51;3.22;;;2.10;;
25129;SDS011;13308;50.860;13.664;2024-01-06T07:19:16;2.28;;;2.08;;
25129;SDS011;13308;50.860;13.664;2024-01-06T07:21:42;7.80;;;2.53;;
25129;SDS011;13308;50.860;13.664;2024-01-06T07:24:07;8.70;;;2.15;;
25129;SDS011;13308;50.860;13.664;2024-01-06T07:26:32;4.38;;;1.92;;
25129;SDS011;13308;50.860;13.664;2024-01-06T07:28:58;4.82;;;2.90;;
25129;SDS011;13308;50.860;13.664;2024-01-06T07:31:23;8.07;;;3.90;;
25129;SDS011;13308;50.860;13.664;2024-01-06T07:33:48;3.92;;;2.63;;
25129;SDS011;13308;50.860;13.664;2024-01-06T07:36:14;4.07;;;2.90;;
25129;SDS011;13308;50.860;13.664;2024-01-06T07:38:39;4.03;;;2.72;;
25129;SDS011;13308;50.860;13.664;2024-01-06T07:41:04;5.55;;;3.42;;
25129;SDS011;13308;50.860;13.664;2024-01-06T07:43:30;6.38;;;3.50;;
25129;SDS011;13308;50.860;13.664;2024-01-06T07:45:55;3.22;;;2.42;;
25129;SDS011;13308;50.860;13.664;2024-01-06T07:48:21;3.30;;;2.55;;
25129;SDS011;13308;50.860;13.664;2024-01-06T07:50:46;3.50;;;2.30;;
25129;SDS011;13308;50.860;13.664;2024-01-06T07:53:11;5.72;;;2.40;;
25129;SDS011;13308;50.860;13.664;2024-01-06T07:55:38;3.55;;;2.55;;
25129;SDS011;13308;50.860;13.664;2024-01-06T07:58:04;4.38;;;3.38;;
25129;SDS011;13308;50.860;13.664;2024-01-06T08:00:29;4.63;;;3.00;;
25129;SDS011;13308;50.860;13.664;2024-01-06T08:02:54;3.97;;;2.50;;
25129;SDS011;13308;50.860;13.664;2024-01-06T08:05:20;8.25;;;3.80;;
25129;SDS011;13308;50.860;13.664;2024-01-06T08:07:45;3.05;;;2.40;;
25129;SDS011;13308;50.860;13.664;2024-01-06T08:10:11;3.88;;;2.53;;
25129;SDS011;13308;50.860;13.664;2024-01-06T08:12:36;2.67;;;2.47;;
25129;SDS011;13308;50.860;13.664;2024-01-06T08:15:02;2.95;;;2.65;;
25129;SDS011;13308;50.860;13.664;2024-01-06T08:17:29;2.70;;;2.50;;
25129;SDS011;13308;50.860;13.664;2024-01-06T08:19:54;3.40;;;2.40;;
25129;SDS011;13308;50.860;13.664;2024-01-06T08:22:20;2.45;;;2.25;;
25129;SDS011;13308;50.860;13.664;2024-01-06T08:24:45;3.72;;;2.67;;
25129;SDS011;13308;50.860;13.664;2024-01-06T08:27:10;3.22;;;2.55;;
25129;SDS011;13308;50.860;13.664;2024-01-06T08:29:36;3.22;;;2.20;;
25129;SDS011;13308;50.860;13.664;2024-01-06T08:32:01;2.40;;;2.20;;
25129;SDS011;13308;50.860;13.664;2024-01-06T08:34:26;2.50;;;2.05;;
25129;SDS011;13308;50.860;13.664;2024-01-06T08:36:52;4.38;;;2.60;;
25129;SDS011;13308;50.860;13.664;2024-01-06T08:39:17;2.70;;;2.10;;
25129;SDS011;13308;50.860;13.664;2024-01-06T08:41:42;3.28;;;2.75;;
25129;SDS011;13308;50.860;13.664;2024-01-06T08:44:08;5.10;;;2.35;;
25129;SDS011;13308;50.860;13.664;2024-01-06T08:46:33;3.85;;;2.72;;
25129;SDS011;13308;50.860;13.664;2024-01-06T08:48:58;2.80;;;2.40;;
25129;SDS011;13308;50.860;13.664;2024-01-06T08:51:25;4.57;;;3.03;;
25129;SDS011;13308;50.860;13.664;2024-01-06T08:53:51;3.83;;;2.55;;
25129;SDS011;13308;50.860;13.664;2024-01-06T08:56:16;4.35;;;3.30;;
25129;SDS011;13308;50.860;13.664;2024-01-06T08:58:42;4.45;;;3.40;;
25129;SDS011;13308;50.860;13.664;2024-01-06T09:01:08;4.50;;;3.28;;
25129;SDS011;13308;50.860;13.664;2024-01-06T09:03:34;5.50;;;3.60;;
25129;SDS011;13308;50.860;13.664;2024-01-06T09:05:59;7.63;;;3.28;;
25129;SDS011;13308;50.860;13.664;2024-01-06T09:08:25;4.32;;;3.40;;
25129;SDS011;13308;50.860;13.664;2024-01-06T09:10:50;6.93;;;4.05;;
25129;SDS011;13308;50.860;13.664;2024-01-06T09:13:21;6.13;;;3.78;;
25129;SDS011;13308;50.860;13.664;2024-01-06T09:15:48;8.00;;;4.40;;
25129;SDS011;13308;50.860;13.664;2024-01-06T09:18:13;12.40;;;4.70;;
25129;SDS011;13308;50.860;13.664;2024-01-06T09:20:38;12.40;;;5.43;;
25129;SDS011;13308;50.860;13.664;2024-01-06T09:23:04;51.00;;;17.45;;
25129;SDS011;13308;50.860;13.664;2024-01-06T09:25:29;67.78;;;24.00;;
25129;SDS011;13308;50.860;13.664;2024-01-06T09:27:55;48.70;;;17.83;;
25129;SDS011;13308;50.860;13.664;2024-01-06T09:30:20;20.85;;;10.23;;
25129;SDS011;13308;50.860;13.664;2024-01-06T09:32:45;8.30;;;5.05;;
25129;SDS011;13308;50.860;13.664;2024-01-06T09:35:10;9.18;;;4.68;;
25129;SDS011;13308;50.860;13.664;2024-01-06T09:37:36;9.02;;;6.03;;
25129;SDS011;13308;50.860;13.664;2024-01-06T09:40:01;17.58;;;9.18;;
25129;SDS011;13308;50.860;13.664;2024-01-06T09:42:26;16.13;;;10.20;;
25129;SDS011;13308;50.860;13.664;2024-01-06T09:44:52;12.90;;;7.22;;
25129;SDS011;13308;50.860;13.664;2024-01-06T09:47:17;8.23;;;5.32;;
25129;SDS011;13308;50.860;13.664;2024-01-06T09:49:45;8.55;;;5.95;;
25129;SDS011;13308;50.860;13.664;2024-01-06T09:52:14;14.95;;;9.82;;
25129;SDS011;13308;50.860;13.664;2024-01-06T09:54:45;14.90;;;10.50;;
25129;SDS011;13308;50.860;13.664;2024-01-06T09:57:15;17.80;;;11.77;;
25129;SDS011;13308;50.860;13.664;2024-01-06T09:59:41;22.73;;;14.68;;
25129;SDS011;13308;50.860;13.664;2024-01-06T10:02:09;22.17;;;15.45;;
25129;SDS011;13308;50.860;13.664;2024-01-06T10:04:38;21.83;;;15.98;;
25129;SDS011;13308;50.860;13.664;2024-01-06T10:07:04;18.63;;;11.65;;
25129;SDS011;13308;50.860;13.664;2024-01-06T10:09:30;14.70;;;10.52;;
25129;SDS011;13308;50.860;13.664;2024-01-06T10:11:56;12.10;;;8.55;;
25129;SDS011;13308;50.860;13.664;2024-01-06T10:14:25;9.45;;;7.32;;
25129;SDS011;13308;50.860;13.664;2024-01-06T10:16:53;11.27;;;7.45;;
25129;SDS011;13308;50.860;13.664;2024-01-06T10:19:19;9.40;;;6.95;;
25129;SDS011;13308;50.860;13.664;2024-01-06T10:21:45;10.55;;;7.13;;
25129;SDS011;13308;50.860;13.664;2024-01-06T10:24:10;9.43;;;6.63;;
25129;SDS011;13308;50.860;13.664;2024-01-06T10:26:36;9.82;;;6.20;;
25129;SDS011;13308;50.860;13.664;2024-01-06T10:29:01;8.02;;;5.72;;
25129;SDS011;13308;50.860;13.664;2024-01-06T10:31:29;7.57;;;5.15;;
25129;SDS011;13308;50.860;13.664;2024-01-06T10:33:54;8.10;;;5.82;;
25129;SDS011;13308;50.860;13.664;2024-01-06T10:36:20;9.23;;;6.47;;
25129;SDS011;13308;50.860;13.664;2024-01-06T10:38:45;9.18;;;6.30;;
25129;SDS011;13308;50.860;13.664;2024-01-06T10:41:11;9.43;;;6.20;;
25129;SDS011;13308;50.860;13.664;2024-01-06T10:43:36;9.63;;;6.65;;
25129;SDS011;13308;50.860;13.664;2024-01-06T10:46:06;8.13;;;6.40;;
25129;SDS011;13308;50.860;13.664;2024-01-06T10:48:35;8.02;;;5.68;;
25129;SDS011;13308;50.860;13.664;2024-01-06T10:51:03;12.38;;;7.43;;
25129;SDS011;13308;50.860;13.664;2024-01-06T10:53:32;12.77;;;6.57;;
25129;SDS011;13308;50.860;13.664;2024-01-06T10:55:58;9.48;;;5.43;;
25129;SDS011;13308;50.860;13.664;2024-01-06T10:58:24;10.25;;;5.97;;
25129;SDS011;13308;50.860;13.664;2024-01-06T11:00:49;7.78;;;6.00;;
25129;SDS011;13308;50.860;13.664;2024-01-06T11:03:15;11.63;;;6.00;;
25129;SDS011;13308;50.860;13.664;2024-01-06T11:05:42;4.70;;;3.47;;
25129;SDS011;13308;50.860;13.664;2024-01-06T11:08:08;6.47;;;3.50;;
25129;SDS011;13308;50.860;13.664;2024-01-06T11:10:35;4.20;;;3.65;;
25129;SDS011;13308;50.860;13.664;2024-01-06T11:13:05;10.73;;;4.25;;
25129;SDS011;13308;50.860;13.664;2024-01-06T11:15:42;4.00;;;2.60;;
25129;SDS011;13308;50.860;13.664;2024-01-06T11:18:53;3.20;;;2.60;;
25129;SDS011;13308;50.860;13.664;2024-01-06T11:21:21;9.10;;;3.78;;
25129;SDS011;13308;50.860;13.664;2024-01-06T11:26:44;8.63;;;4.03;;
25129;SDS011;13308;50.860;13.664;2024-01-06T11:29:10;3.55;;;3.08;;
25129;SDS011;13308;50.860;13.664;2024-01-06T11:31:37;5.93;;;3.00;;
25129;SDS011;13308;50.860;13.664;2024-01-06T11:34:12;5.47;;;3.03;;
25129;SDS011;13308;50.860;13.664;2024-01-06T11:36:39;4.57;;;3.08;;
25129;SDS011;13308;50.860;13.664;2024-01-06T11:39:05;8.60;;;4.47;;
25129;SDS011;13308;50.860;13.664;2024-01-06T11:41:49;8.20;;;4.60;;
25129;SDS011;13308;50.860;13.664;2024-01-06T11:44:20;8.77;;;4.13;;
25129;SDS011;13308;50.860;13.664;2024-01-06T11:46:45;7.82;;;4.65;;
25129;SDS011;13308;50.860;13.664;2024-01-06T11:49:12;7.82;;;4.38;;
25129;SDS011;13308;50.860;13.664;2024-01-06T11:51:41;5.50;;;4.05;;
25129;SDS011;13308;50.860;13.664;2024-01-06T11:54:06;4.10;;;3.28;;
25129;SDS011;13308;50.860;13.664;2024-01-06T11:56:32;8.88;;;3.63;;
25129;SDS011;13308;50.860;13.664;2024-01-06T11:58:57;3.50;;;3.03;;
25129;SDS011;13308;50.860;13.664;2024-01-06T12:01:22;7.07;;;3.55;;
25129;SDS011;13308;50.860;13.664;2024-01-06T12:03:53;7.95;;;3.75;;
25129;SDS011;13308;50.860;13.664;2024-01-06T12:06:20;4.90;;;3.10;;
25129;SDS011;13308;50.860;13.664;2024-01-06T12:08:46;7.97;;;3.75;;
25129;SDS011;13308;50.860;13.664;2024-01-06T12:11:11;11.13;;;4.18;;
25129;SDS011;13308;50.860;13.664;2024-01-06T12:13:37;4.72;;;3.40;;
25129;SDS011;13308;50.860;13.664;2024-01-06T12:16:02;4.38;;;3.55;;
25129;SDS011;13308;50.860;13.664;2024-01-06T12:18:28;5.15;;;3.25;;
25129;SDS011;13308;50.860;13.664;2024-01-06T12:20:53;6.97;;;3.28;;
25129;SDS011;13308;50.860;13.664;2024-01-06T12:23:26;5.50;;;3.95;;
25129;SDS011;13308;50.860;13.664;2024-01-06T12:25:53;7.80;;;4.13;;
25129;SDS011;13308;50.860;13.664;2024-01-06T12:28:19;10.30;;;4.47;;
25129;SDS011;13308;50.860;13.664;2024-01-06T12:30:44;5.90;;;3.90;;
25129;SDS011;13308;50.860;13.664;2024-01-06T12:33:09;6.30;;;4.07;;
25129;SDS011;13308;50.860;13.664;2024-01-06T12:35:35;4.55;;;4.10;;
25129;SDS011;13308;50.860;13.664;2024-01-06T12:38:01;4.55;;;4.13;;
25129;SDS011;13308;50.860;13.664;2024-01-06T12:40:30;5.35;;;4.13;;
25129;SDS011;13308;50.860;13.664;2024-01-06T12:42:55;7.15;;;4.55;;
25129;SDS011;13308;50.860;13.664;2024-01-06T12:45:21;7.78;;;4.63;;
25129;SDS011;13308;50.860;13.664;2024-01-06T12:47:47;4.78;;;4.28;;
25129;SDS011;13308;50.860;13.664;2024-01-06T12:50:12;5.18;;;4.07;;
25129;SDS011;13308;50.860;13.664;2024-01-06T12:52:38;6.03;;;4.38;;
25129;SDS011;13308;50.860;13.664;2024-01-06T12:55:05;5.22;;;4.07;;
25129;SDS011;13308;50.860;13.664;2024-01-06T12:57:31;8.65;;;4.50;;
25129;SDS011;13308;50.860;13.664;2024-01-06T12:59:56;11.77;;;4.75;;
25129;SDS011;13308;50.860;13.664;2024-01-06T13:02:21;6.60;;;4.65;;
25129;SDS011;13308;50.860;13.664;2024-01-06T13:04:47;6.90;;;4.30;;
25129;SDS011;13308;50.860;13.664;2024-01-06T13:07:12;6.68;;;4.68;;
25129;SDS011;13308;50.860;13.664;2024-01-06T13:09:38;7.18;;;4.80;;
25129;SDS011;13308;50.860;13.664;2024-01-06T13:12:04;7.05;;;4.65;;
25129;SDS011;13308;50.860;13.664;2024-01-06T13:14:30;10.10;;;6.07;;
25129;SDS011;13308;50.860;13.664;2024-01-06T13:16:56;12.10;;;5.32;;
25129;SDS011;13308;50.860;13.664;2024-01-06T13:19:22;6.22;;;5.00;;
25129;SDS011;13308;50.860;13.664;2024-01-06T13:21:49;10.50;;;5.70;;
25129;SDS011;13308;50.860;13.664;2024-01-06T13:24:14;6.78;;;5.57;;
25129;SDS011;13308;50.860;13.664;2024-01-06T13:26:39;8.90;;;6.07;;
25129;SDS011;13308;50.860;13.664;2024-01-06T13:29:04;9.15;;;5.95;;
25129;SDS011;13308;50.860;13.664;2024-01-06T13:31:30;9.27;;;6.65;;
25129;SDS011;13308;50.860;13.664;2024-01-06T13:33:56;21.35;;;15.55;;
25129;SDS011;13308;50.860;13.664;2024-01-06T13:36:21;25.20;;;16.42;;
25129;SDS011;13308;50.860;13.664;2024-01-06T13:38:47;16.80;;;10.40;;
25129;SDS011;13308;50.860;13.664;2024-01-06T13:41:13;13.10;;;7.57;;
25129;SDS011;13308;50.860;13.664;2024-01-06T13:43:39;11.07;;;7.45;;
25129;SDS011;13308;50.860;13.664;2024-01-06T13:46:04;11.65;;;7.78;;
25129;SDS011;13308;50.860;13.664;2024-01-06T13:48:29;12.68;;;7.57;;
25129;SDS011;13308;50.860;13.664;2024-01-06T13:50:55;9.60;;;7.07;;
25129;SDS011;13308;50.860;13.664;2024-01-06T13:53:21;12.05;;;7.45;;
25129;SDS011;13308;50.860;13.664;2024-01-06T13:55:46;12.25;;;7.50;;
25129;SDS011;13308;50.860;13.664;2024-01-06T13:58:12;13.15;;;8.00;;
25129;SDS011;13308;50.860;13.664;2024-01-06T14:00:37;12.40;;;7.85;;
25129;SDS011;13308;50.860;13.664;2024-01-06T14:03:03;16.13;;;8.55;;
25129;SDS011;13308;50.860;13.664;2024-01-06T14:05:29;12.63;;;8.40;;
25129;SDS011;13308;50.860;13.664;2024-01-06T14:07:54;18.40;;;9.30;;
25129;SDS011;13308;50.860;13.664;2024-01-06T14:10:20;16.60;;;9.00;;
25129;SDS011;13308;50.860;13.664;2024-01-06T14:12:45;17.67;;;11.10;;
25129;SDS011;13308;50.860;13.664;2024-01-06T14:15:11;18.48;;;10.75;;
25129;SDS011;13308;50.860;13.664;2024-01-06T14:17:37;18.58;;;10.30;;
25129;SDS011;13308;50.860;13.664;2024-01-06T14:20:03;23.98;;;12.15;;
25129;SDS011;13308;50.860;13.664;2024-01-06T14:22:29;22.40;;;13.15;;
25129;SDS011;13308;50.860;13.664;2024-01-06T14:24:54;24.38;;;13.38;;
25129;SDS011;13308;50.860;13.664;2024-01-06T14:27:20;21.90;;;12.65;;
25129;SDS011;13308;50.860;13.664;2024-01-06T14:29:45;21.70;;;12.23;;
25129;SDS011;13308;50.860;13.664;2024-01-06T14:32:11;24.13;;;12.57;;
25129;SDS011;13308;50.860;13.664;2024-01-06T14:34:38;20.67;;;12.32;;
25129;SDS011;13308;50.860;13.664;2024-01-06T14:37:04;26.67;;;13.25;;
25129;SDS011;13308;50.860;13.664;2024-01-06T14:39:30;27.08;;;13.35;;
25129;SDS011;13308;50.860;13.664;2024-01-06T14:41:55;27.55;;;13.35;;
25129;SDS011;13308;50.860;13.664;2024-01-06T14:44:20;28.63;;;13.82;;
25129;SDS011;13308;50.860;13.664;2024-01-06T14:46:46;33.75;;;13.40;;
25129;SDS011;13308;50.860;13.664;2024-01-06T14:49:12;31.02;;;13.98;;
25129;SDS011;13308;50.860;13.664;2024-01-06T14:51:38;34.17;;;15.00;;
25129;SDS011;13308;50.860;13.664;2024-01-06T14:54:03;29.98;;;14.80;;
25129;SDS011;13308;50.860;13.664;2024-01-06T14:56:28;30.23;;;14.18;;
25129;SDS011;13308;50.860;13.664;2024-01-06T14:58:55;34.80;;;15.13;;
25129;SDS011;13308;50.860;13.664;2024-01-06T15:01:21;32.65;;;14.57;;
25129;SDS011;13308;50.860;13.664;2024-01-06T15:03:46;38.75;;;17.10;;
25129;SDS011;13308;50.860;13.664;2024-01-06T15:06:11;40.15;;;17.35;;
25129;SDS011;13308;50.860;13.664;2024-01-06T15:08:37;36.67;;;17.08;;
25129;SDS011;13308;50.860;13.664;2024-01-06T15:11:02;37.97;;;16.90;;
25129;SDS011;13308;50.860;13.664;2024-01-06T15:13:28;43.85;;;17.50;;
25129;SDS011;13308;50.860;13.664;2024-01-06T15:15:53;35.30;;;17.10;;
25129;SDS011;13308;50.860;13.664;2024-01-06T15:18:19;31.48;;;15.80;;
25129;SDS011;13308;50.860;13.664;2024-01-06T15:20:45;35.53;;;16.60;;
25129;SDS011;13308;50.860;13.664;2024-01-06T15:23:11;32.33;;;16.52;;
25129;SDS011;13308;50.860;13.664;2024-01-06T15:25:36;39.67;;;17.52;;
25129;SDS011;13308;50.860;13.664;2024-01-06T15:28:02;36.33;;;16.48;;
25129;SDS011;13308;50.860;13.664;2024-01-06T15:30:27;35.70;;;16.73;;
25129;SDS011;13308;50.860;13.664;2024-01-06T15:32:52;34.95;;;16.48;;
25129;SDS011;13308;50.860;13.664;2024-01-06T15:35:18;38.75;;;16.42;;
25129;SDS011;13308;50.860;13.664;2024-01-06T15:37:43;34.67;;;16.30;;
25129;SDS011;13308;50.860;13.664;2024-01-06T15:40:09;33.58;;;16.55;;
25129;SDS011;13308;50.860;13.664;2024-01-06T15:42:34;39.33;;;17.10;;
25129;SDS011;13308;50.860;13.664;2024-01-06T15:45:00;43.85;;;18.58;;
25129;SDS011;13308;50.860;13.664;2024-01-06T15:47:25;41.63;;;18.08;;
25129;SDS011;13308;50.860;13.664;2024-01-06T15:49:50;37.83;;;16.92;;
25129;SDS011;13308;50.860;13.664;2024-01-06T15:52:16;39.88;;;17.15;;
25129;SDS011;13308;50.860;13.664;2024-01-06T15:54:46;45.03;;;18.40;;
25129;SDS011;13308;50.860;13.664;2024-01-06T15:57:13;44.17;;;19.27;;
25129;SDS011;13308;50.860;13.664;2024-01-06T15:59:38;39.65;;;16.33;;
25129;SDS011;13308;50.860;13.664;2024-01-06T16:02:04;39.40;;;17.30;;
25129;SDS011;13308;50.860;13.664;2024-01-06T16:04:29;42.72;;;16.98;;
25129;SDS011;13308;50.860;13.664;2024-01-06T16:06:55;39.28;;;16.70;;
25129;SDS011;13308;50.860;13.664;2024-01-06T16:09:22;47.85;;;16.85;;
25129;SDS011;13308;50.860;13.664;2024-01-06T16:11:50;38.95;;;15.18;;
25129;SDS011;13308;50.860;13.664;2024-01-06T16:14:16;39.00;;;14.75;;
25129;SDS011;13308;50.860;13.664;2024-01-06T16:16:41;37.78;;;15.88;;
25129;SDS011;13308;50.860;13.664;2024-01-06T16:19:07;40.20;;;15.55;;
25129;SDS011;13308;50.860;13.664;2024-01-06T16:21:33;42.88;;;15.05;;
25129;SDS011;13308;50.860;13.664;2024-01-06T16:23:58;42.53;;;15.95;;
25129;SDS011;13308;50.860;13.664;2024-01-06T16:26:25;38.47;;;15.18;;
25129;SDS011;13308;50.860;13.664;2024-01-06T16:28:50;38.30;;;15.75;;
25129;SDS011;13308;50.860;13.664;2024-01-06T16:31:16;43.22;;;16.05;;
25129;SDS011;13308;50.860;13.664;2024-01-06T16:33:41;39.92;;;15.68;;
25129;SDS011;13308;50.860;13.664;2024-01-06T16:36:07;42.13;;;16.05;;
25129;SDS011;13308;50.860;13.664;2024-01-06T16:38:35;44.05;;;15.68;;
25129;SDS011;13308;50.860;13.664;2024-01-06T16:41:01;44.15;;;16.98;;
25129;SDS011;13308;50.860;13.664;2024-01-06T16:43:27;47.33;;;16.98;;
25129;SDS011;13308;50.860;13.664;2024-01-06T16:45:53;46.13;;;17.10;;
25129;SDS011;13308;50.860;13.664;2024-01-06T16:48:18;45.55;;;17.25;;
25129;SDS011;13308;50.860;13.664;2024-01-06T16:50:43;41.88;;;16.30;;
25129;SDS011;13308;50.860;13.664;2024-01-06T16:53:10;53.17;;;16.85;;
25129;SDS011;13308;50.860;13.664;2024-01-06T16:55:36;52.58;;;16.85;;
25129;SDS011;13308;50.860;13.664;2024-01-06T16:58:01;48.15;;;17.30;;
25129;SDS011;13308;50.860;13.664;2024-01-06T17:00:27;44.17;;;16.88;;
25129;SDS011;13308;50.860;13.664;2024-01-06T17:02:53;58.13;;;17.60;;
25129;SDS011;13308;50.860;13.664;2024-01-06T17:05:19;53.65;;;18.30;;
25129;SDS011;13308;50.860;13.664;2024-01-06T17:07:45;50.83;;;18.40;;
25129;SDS011;13308;50.860;13.664;2024-01-06T17:10:12;53.47;;;17.08;;
25129;SDS011;13308;50.860;13.664;2024-01-06T17:12:38;65.65;;;17.55;;
25129;SDS011;13308;50.860;13.664;2024-01-06T17:15:04;61.53;;;19.20;;
25129;SDS011;13308;50.860;13.664;2024-01-06T17:17:29;54.67;;;20.20;;
25129;SDS011;13308;50.860;13.664;2024-01-06T17:19:55;57.60;;;18.75;;
25129;SDS011;13308;50.860;13.664;2024-01-06T17:22:21;54.28;;;19.27;;
25129;SDS011;13308;50.860;13.664;2024-01-06T17:24:46;59.58;;;19.67;;
25129;SDS011;13308;50.860;13.664;2024-01-06T17:27:12;61.83;;;18.98;;
25129;SDS011;13308;50.860;13.664;2024-01-06T17:29:37;56.85;;;18.77;;
25129;SDS011;13308;50.860;13.664;2024-01-06T17:32:02;59.92;;;20.30;;
25129;SDS011;13308;50.860;13.664;2024-01-06T17:34:29;67.72;;;21.60;;
25129;SDS011;13308;50.860;13.664;2024-01-06T17:36:54;64.47;;;20.00;;
25129;SDS011;13308;50.860;13.664;2024-01-06T17:39:19;57.42;;;20.50;;
25129;SDS011;13308;50.860;13.664;2024-01-06T17:41:45;57.78;;;20.48;;
25129;SDS011;13308;50.860;13.664;2024-01-06T17:44:11;71.68;;;21.92;;
25129;SDS011;13308;50.860;13.664;2024-01-06T17:46:37;61.80;;;19.70;;
25129;SDS011;13308;50.860;13.664;2024-01-06T17:49:02;63.75;;;21.85;;
25129;SDS011;13308;50.860;13.664;2024-01-06T17:51:28;67.20;;;20.17;;
25129;SDS011;13308;50.860;13.664;2024-01-06T17:53:54;66.88;;;21.63;;
25129;SDS011;13308;50.860;13.664;2024-01-06T17:56:19;66.68;;;21.60;;
25129;SDS011;13308;50.860;13.664;2024-01-06T17:58:45;66.85;;;21.23;;
25129;SDS011;13308;50.860;13.664;2024-01-06T18:01:11;67.65;;;22.27;;
25129;SDS011;13308;50.860;13.664;2024-01-06T18:03:38;74.25;;;23.70;;
25129;SDS011;13308;50.860;13.664;2024-01-06T18:06:04;68.45;;;22.58;;
25129;SDS011;13308;50.860;13.664;2024-01-06T18:08:29;77.78;;;24.17;;
25129;SDS011;13308;50.860;13.664;2024-01-06T18:10:55;76.03;;;24.27;;
25129;SDS011;13308;50.860;13.664;2024-01-06T18:13:20;67.10;;;22.27;;
25129;SDS011;13308;50.860;13.664;2024-01-06T18:15:45;75.97;;;23.88;;
25129;SDS011;13308;50.860;13.664;2024-01-06T18:18:11;74.18;;;24.52;;
25129;SDS011;13308;50.860;13.664;2024-01-06T18:20:36;75.30;;;24.55;;
25129;SDS011;13308;50.860;13.664;2024-01-06T18:23:03;83.28;;;24.98;;
25129;SDS011;13308;50.860;13.664;2024-01-06T18:25:29;82.63;;;26.17;;
25129;SDS011;13308;50.860;13.664;2024-01-06T18:27:54;71.32;;;23.73;;
25129;SDS011;13308;50.860;13.664;2024-01-06T18:30:20;77.50;;;24.17;;
25129;SDS011;13308;50.860;13.664;2024-01-06T18:32:45;80.25;;;25.45;;
25129;SDS011;13308;50.860;13.664;2024-01-06T18:35:11;77.75;;;25.63;;
25129;SDS011;13308;50.860;13.664;2024-01-06T18:37:37;78.63;;;24.90;;
25129;SDS011;13308;50.860;13.664;2024-01-06T18:40:03;77.85;;;24.58;;
25129;SDS011;13308;50.860;13.664;2024-01-06T18:42:29;65.53;;;23.45;;
25129;SDS011;13308;50.860;13.664;2024-01-06T18:44:58;78.43;;;25.20;;
25129;SDS011;13308;50.860;13.664;2024-01-06T18:47:24;83.35;;;24.08;;
25129;SDS011;13308;50.860;13.664;2024-01-06T18:49:49;83.85;;;24.75;;
25129;SDS011;13308;50.860;13.664;2024-01-06T18:52:15;74.97;;;24.60;;
25129;SDS011;13308;50.860;13.664;2024-01-06T18:54:40;59.00;;;20.95;;
25129;SDS011;13308;50.860;13.664;2024-01-06T18:57:07;71.03;;;21.58;;
25129;SDS011;13308;50.860;13.664;2024-01-06T18:59:32;68.55;;;21.05;;
25129;SDS011;13308;50.860;13.664;2024-01-06T19:01:58;65.82;;;20.88;;
25129;SDS011;13308;50.860;13.664;2024-01-06T19:04:23;55.17;;;19.23;;
25129;SDS011;13308;50.860;13.664;2024-01-06T19:06:49;59.95;;;20.30;;
25129;SDS011;13308;50.860;13.664;2024-01-06T19:09:15;56.28;;;20.55;;
25129;SDS011;13308;50.860;13.664;2024-01-06T19:11:40;66.65;;;20.65;;
25129;SDS011;13308;50.860;13.664;2024-01-06T19:14:05;65.53;;;20.52;;
25129;SDS011;13308;50.860;13.664;2024-01-06T19:16:31;65.80;;;21.48;;
25129;SDS011;13308;50.860;13.664;2024-01-06T19:18:56;70.25;;;22.20;;
25129;SDS011;13308;50.860;13.664;2024-01-06T19:21:21;64.78;;;20.15;;
25129;SDS011;13308;50.860;13.664;2024-01-06T19:23:47;68.70;;;22.00;;
25129;SDS011;13308;50.860;13.664;2024-01-06T19:26:12;63.05;;;20.35;;
25129;SDS011;13308;50.860;13.664;2024-01-06T19:28:37;93.40;;;21.60;;
25129;SDS011;13308;50.860;13.664;2024-01-06T19:31:04;70.20;;;20.27;;
25129;SDS011;13308;50.860;13.664;2024-01-06T19:33:29;80.20;;;22.13;;
